Time;durP1;ratioP1;P1;durP2;ratioP2;P2;SDS_P1;SDS_P2;PMS_P1;PMS_P2;Temp;Humidity;BMP_temperature;BMP_pressure;BME280_temperature;BME280_humidity;BME280_pressure;Samples;Min_cycle;Max_cycle;Signal;HPM_P1;HPM_P2
2021/05/11 00:00:37;;;;;;;4.30;3.38;;;14.60;41.00;;;;;;4998340;28;20133;-76
2021/05/11 00:03:03;;;;;;;7.57;3.50;;;14.60;41.10;;;;;;4998259;28;20073;-75
2021/05/11 00:05:31;;;;;;;5.25;3.22;;;14.60;41.10;;;;;;4998198;28;20505;-76
2021/05/11 00:07:58;;;;;;;5.55;3.55;;;14.60;41.20;;;;;;4997673;28;20030;-76
2021/05/11 00:10:27;;;;;;;5.95;3.38;;;14.50;41.20;;;;;;4998376;28;20073;-75
2021/05/11 00:12:54;;;;;;;4.65;3.00;;;14.50;41.20;;;;;;4998033;28;20120;-76
2021/05/11 00:15:21;;;;;;;5.68;3.85;;;14.50;41.20;;;;;;4998234;28;20033;-76
2021/05/11 00:17:48;;;;;;;5.03;3.65;;;14.40;41.20;;;;;;4981315;28;20033;-76
2021/05/11 00:20:16;;;;;;;5.25;3.83;;;14.40;41.30;;;;;;4999736;28;20041;-76
2021/05/11 00:22:43;;;;;;;5.90;3.35;;;14.40;41.40;;;;;;4999857;28;20406;-75
2021/05/11 00:25:09;;;;;;;4.68;3.20;;;14.40;41.40;;;;;;5000102;28;20077;-76
2021/05/11 00:27:35;;;;;;;4.97;3.42;;;14.40;41.40;;;;;;4998721;28;20037;-77
2021/05/11 00:30:02;;;;;;;6.43;3.88;;;14.40;41.50;;;;;;4997863;28;20046;-77
2021/05/11 00:32:28;;;;;;;5.88;3.60;;;14.30;41.50;;;;;;4981237;28;20069;-76
2021/05/11 00:34:55;;;;;;;5.20;4.03;;;14.30;41.60;;;;;;4997717;28;20065;-77
2021/05/11 00:37:21;;;;;;;5.55;3.75;;;14.30;41.60;;;;;;4997481;28;20034;-76
2021/05/11 00:39:47;;;;;;;5.30;3.65;;;14.30;41.60;;;;;;4997609;28;20437;-77
2021/05/11 00:42:13;;;;;;;4.68;3.80;;;14.30;41.70;;;;;;4997591;28;20546;-76
2021/05/11 00:44:40;;;;;;;6.05;3.80;;;14.20;41.70;;;;;;4997059;28;20037;-77
2021/05/11 00:47:06;;;;;;;5.15;3.92;;;14.20;41.70;;;;;;4981260;28;20037;-76
2021/05/11 00:49:34;;;;;;;5.32;3.85;;;14.20;42.40;;;;;;4997272;28;20441;-76
2021/05/11 00:52:03;;;;;;;6.13;4.10;;;14.20;41.80;;;;;;4995608;28;20107;-75
2021/05/11 00:54:29;;;;;;;6.05;3.80;;;14.20;41.90;;;;;;4996366;28;20060;-75
2021/05/11 00:56:56;;;;;;;6.40;4.13;;;14.10;41.90;;;;;;5014557;28;20038;-74
2021/05/11 00:59:26;;;;;;;5.20;3.80;;;14.10;41.90;;;;;;4980831;28;20029;-75
2021/05/11 01:01:54;;;;;;;4.43;3.47;;;14.10;41.90;;;;;;4981200;28;20038;-76
2021/05/11 01:04:21;;;;;;;5.88;4.35;;;14.10;41.90;;;;;;4980811;28;20099;-75
2021/05/11 01:06:47;;;;;;;6.07;3.72;;;14.10;42.00;;;;;;4980420;28;20069;-75
2021/05/11 01:09:13;;;;;;;5.90;3.60;;;14.00;41.90;;;;;;4995707;28;20034;-74
2021/05/11 01:11:40;;;;;;;4.97;3.70;;;14.00;42.10;;;;;;4980852;28;20049;-74
2021/05/11 01:14:06;;;;;;;4.07;3.35;;;14.00;42.00;;;;;;4998253;28;20034;-75
2021/05/11 01:16:33;;;;;;;4.70;3.20;;;14.00;42.00;;;;;;5015277;28;20034;-75
2021/05/11 01:19:48;;;;;;;6.25;3.13;;;14.00;42.10;;;;;;4996833;28;20038;-74
2021/05/11 01:24:28;;;;;;;5.15;3.20;;;13.90;42.00;;;;;;4996518;28;20486;-75
2021/05/11 01:27:04;;;;;;;4.05;3.22;;;13.90;42.10;;;;;;5015409;28;20037;-74
2021/05/11 01:29:45;;;;;;;3.90;2.88;;;13.90;42.10;;;;;;4998064;28;20064;-75
2021/05/11 02:10:48;;;;;;;4.68;2.80;;;14.00;42.60;;;;;;4915552;29;20075;-76
2021/05/11 02:24:12;;;;;;;4.43;3.47;;;15.30;41.50;;;;;;4977057;28;20042;-76
2021/05/11 02:26:38;;;;;;;5.45;3.83;;;15.60;41.20;;;;;;4994980;28;20046;-77
2021/05/11 02:29:04;;;;;;;6.75;4.45;;;15.90;40.90;;;;;;4976777;28;20029;-76
2021/05/11 02:31:30;;;;;;;8.23;4.07;;;16.20;40.60;;;;;;4977101;28;20434;-77
2021/05/11 02:33:56;;;;;;;4.30;3.88;;;16.50;40.20;;;;;;4993903;28;20043;-78
2021/05/11 02:36:22;;;;;;;7.90;3.45;;;17.00;39.90;;;;;;4979023;28;20030;-76
2021/05/11 02:38:49;;;;;;;5.68;3.28;;;17.40;39.40;;;;;;4978440;28;20038;-74
2021/05/11 02:41:15;;;;;;;4.22;3.13;;;17.80;38.90;;;;;;4960913;28;20038;-74
2021/05/11 02:43:43;;;;;;;5.45;3.00;;;18.20;38.40;;;;;;4993955;28;20041;-75
2021/05/11 02:46:09;;;;;;;4.35;2.90;;;18.40;38.00;;;;;;4977137;28;20097;-76
2021/05/11 02:48:35;;;;;;;3.20;2.47;;;18.50;37.70;;;;;;4994363;28;20042;-77
2021/05/11 02:51:01;;;;;;;4.32;2.90;;;18.50;37.50;;;;;;4992866;28;20080;-75
2021/05/11 02:53:27;;;;;;;3.85;2.70;;;18.40;37.50;;;;;;4975004;28;20100;-75
2021/05/11 02:55:53;;;;;;;3.50;2.72;;;18.20;37.60;;;;;;4993222;28;20074;-76
2021/05/11 02:58:19;;;;;;;5.72;2.97;;;18.00;37.60;;;;;;4993824;28;20506;-76
2021/05/11 03:00:45;;;;;;;5.05;2.67;;;17.90;37.80;;;;;;5012430;28;20548;-75
2021/05/11 03:03:11;;;;;;;3.75;2.70;;;17.80;38.00;;;;;;4978703;28;20037;-74
2021/05/11 03:05:37;;;;;;;3.95;2.67;;;17.60;38.10;;;;;;4995661;28;20045;-73
2021/05/11 03:08:04;;;;;;;3.58;2.83;;;17.50;38.10;;;;;;5012385;28;20133;-73
2021/05/11 03:10:30;;;;;;;5.03;2.60;;;17.40;38.30;;;;;;4979132;28;20045;-74
2021/05/11 03:12:56;;;;;;;5.38;2.72;;;17.30;38.40;;;;;;5012470;28;20038;-74
2021/05/11 03:15:22;;;;;;;4.90;3.10;;;17.30;38.60;;;;;;4994586;28;20034;-74
2021/05/11 03:17:49;;;;;;;3.20;2.50;;;17.20;38.70;;;;;;4994238;28;20052;-74
2021/05/11 03:20:15;;;;;;;5.25;2.72;;;17.10;38.80;;;;;;5016205;28;20033;-74
2021/05/11 03:22:41;;;;;;;4.97;2.30;;;17.10;39.00;;;;;;5016841;28;20042;-73
2021/05/11 03:25:08;;;;;;;5.78;2.50;;;17.00;39.10;;;;;;5017610;28;20073;-75
2021/05/11 03:27:34;;;;;;;4.85;2.05;;;16.90;39.20;;;;;;4997578;28;20128;-74
2021/05/11 03:30:00;;;;;;;4.05;2.63;;;16.80;39.30;;;;;;4999304;28;20508;-75
2021/05/11 03:32:26;;;;;;;4.72;2.38;;;16.80;39.40;;;;;;4998821;28;20038;-75
2021/05/11 03:34:53;;;;;;;2.53;2.13;;;16.70;39.50;;;;;;4998990;28;20034;-75
2021/05/11 03:37:19;;;;;;;4.07;2.60;;;16.70;39.60;;;;;;4997538;28;20033;-74
2021/05/11 03:39:45;;;;;;;3.50;2.30;;;16.60;39.60;;;;;;5031485;28;20152;-74
2021/05/11 03:42:30;;;;;;;3.50;2.25;;;16.60;39.70;;;;;;4999092;28;20494;-75
2021/05/11 03:44:58;;;;;;;2.78;2.10;;;16.60;39.90;;;;;;4999475;28;20136;-76
2021/05/11 03:47:26;;;;;;;2.95;2.40;;;16.60;40.00;;;;;;5016062;28;20033;-77
2021/05/11 03:49:52;;;;;;;3.10;2.40;;;17.00;40.00;;;;;;4998504;28;20052;-77
2021/05/11 03:52:18;;;;;;;4.03;2.60;;;17.60;39.60;;;;;;4998371;28;20129;-77
2021/05/11 03:54:44;;;;;;;4.18;2.45;;;18.40;39.10;;;;;;5014746;28;20042;-78
2021/05/11 03:57:11;;;;;;;2.83;2.63;;;19.20;38.40;;;;;;5015574;28;20584;-77
2021/05/11 03:59:37;;;;;;;5.05;2.78;;;20.00;37.70;;;;;;4997393;28;20042;-80
2021/05/11 04:02:06;;;;;;;4.85;2.65;;;20.70;36.90;;;;;;5001563;28;20068;-80
2021/05/11 04:04:33;;;;;;;3.30;2.45;;;21.50;36.20;;;;;;5015764;28;20495;-72
2021/05/11 04:06:59;;;;;;;5.70;2.45;;;22.10;35.50;;;;;;4997794;28;20030;-75
2021/05/11 04:09:35;;;;;;;3.40;2.58;;;22.70;34.80;;;;;;4997871;28;20044;-77
2021/05/11 04:12:18;;;;;;;2.47;2.28;;;23.30;34.30;;;;;;4997740;28;20180;-76
2021/05/11 04:17:29;;;;;;;5.63;2.50;;;24.60;33.20;;;;;;4997163;28;20681;-77
2021/05/11 04:19:55;;;;;;;4.15;2.00;;;25.10;32.70;;;;;;4997436;28;20060;-79
2021/05/11 04:22:21;;;;;;;2.38;2.00;;;25.60;32.30;;;;;;4997624;28;20041;-78
2021/05/11 04:24:47;;;;;;;4.45;2.38;;;26.10;32.00;;;;;;4997348;28;20053;-76
2021/05/11 04:27:13;;;;;;;2.78;1.90;;;26.60;31.70;;;;;;5015386;28;20034;-75
2021/05/11 04:29:38;;;;;;;4.72;2.00;;;27.10;31.50;;;;;;4996020;28;20046;-74
2021/05/11 04:32:05;;;;;;;1.48;1.38;;;27.50;31.00;;;;;;5013830;28;20084;-74
2021/05/11 04:34:31;;;;;;;2.38;1.90;;;27.80;30.80;;;;;;5014854;28;20038;-76
2021/05/11 04:36:57;;;;;;;2.70;1.67;;;28.20;30.40;;;;;;5014535;28;20048;-80
2021/05/11 04:39:23;;;;;;;1.83;1.70;;;28.60;30.30;;;;;;5014438;28;20061;-78
2021/05/11 04:41:49;;;;;;;4.35;1.60;;;28.80;30.00;;;;;;5014028;28;20413;-75
2021/05/11 04:44:18;;;;;;;2.22;1.38;;;28.90;29.70;;;;;;4997288;28;20038;-77
2021/05/11 04:46:49;;;;;;;2.97;1.85;;;28.80;29.90;;;;;;5014895;28;20037;-74
2021/05/11 04:49:15;;;;;;;1.67;1.55;;;28.80;30.00;;;;;;4997332;28;20136;-77
2021/05/11 04:51:41;;;;;;;3.65;1.50;;;28.90;30.00;;;;;;4997174;28;20057;-77
2021/05/11 04:54:07;;;;;;;5.93;1.55;;;29.10;30.10;;;;;;5013841;28;20052;-77
2021/05/11 04:56:33;;;;;;;3.03;1.63;;;29.20;30.00;;;;;;4978560;28;20042;-73
2021/05/11 04:58:59;;;;;;;1.65;1.55;;;29.50;30.10;;;;;;4979096;28;20034;-73
2021/05/11 05:01:25;;;;;;;1.70;1.58;;;30.00;30.10;;;;;;4980637;28;20128;-72
2021/05/11 05:03:53;;;;;;;2.33;1.20;;;30.40;29.70;;;;;;5014387;28;20050;-71
2021/05/11 05:06:21;;;;;;;1.42;1.33;;;30.60;29.40;;;;;;5014724;28;20042;-71
2021/05/11 05:08:47;;;;;;;1.70;1.30;;;30.70;29.30;;;;;;5013885;28;20061;-71
2021/05/11 05:11:14;;;;;;;4.20;1.20;;;30.70;29.10;;;;;;4996625;28;20042;-71
2021/05/11 05:13:40;;;;;;;4.47;1.10;;;30.80;29.10;;;;;;4996403;28;20092;-72
2021/05/11 05:16:06;;;;;;;2.22;1.55;;;30.80;28.90;;;;;;5015083;28;20116;-68
2021/05/11 05:18:32;;;;;;;3.83;1.50;;;30.90;28.70;;;;;;4996254;28;20045;-69
2021/05/11 05:20:58;;;;;;;1.60;1.40;;;30.50;28.00;;;;;;5013270;28;20084;-68
2021/05/11 05:23:34;;;;;;;4.78;1.70;;;29.90;27.90;;;;;;4996288;28;20045;-68
2021/05/11 05:26:04;;;;;;;2.67;1.45;;;29.80;28.00;;;;;;4998067;28;20057;-66
2021/05/11 05:28:33;;;;;;;3.97;1.55;;;29.20;28.00;;;;;;4996987;28;20034;-68
2021/05/11 05:31:01;;;;;;;4.03;1.50;;;29.00;28.00;;;;;;5013926;28;20168;-68
2021/05/11 05:33:36;;;;;;;5.30;1.30;;;28.80;28.10;;;;;;5013837;28;20041;-67
2021/05/11 05:36:03;;;;;;;2.33;1.27;;;28.50;27.90;;;;;;5013970;28;20488;-69
2021/05/11 05:38:30;;;;;;;2.17;1.13;;;28.20;28.10;;;;;;5013818;28;20549;-69
2021/05/11 05:41:02;;;;;;;2.25;1.30;;;28.20;28.30;;;;;;4996101;28;20040;-68
2021/05/11 05:43:28;;;;;;;2.67;1.20;;;28.10;28.70;;;;;;4996349;28;20413;-67
2021/05/11 05:45:55;;;;;;;1.20;1.20;;;28.00;28.70;;;;;;5013647;28;20044;-66
2021/05/11 05:48:22;;;;;;;1.20;1.10;;;27.90;28.00;;;;;;5013910;28;20104;-67
2021/05/11 05:50:54;;;;;;;3.28;1.60;;;27.90;28.10;;;;;;4979996;28;20048;-67
2021/05/11 05:53:31;;;;;;;3.50;1.20;;;28.00;28.10;;;;;;4995820;28;20049;-67
2021/05/11 05:55:57;;;;;;;4.22;1.70;;;28.20;28.20;;;;;;4996096;28;20033;-68
2021/05/11 05:58:23;;;;;;;2.67;1.30;;;28.10;28.10;;;;;;4995815;28;20037;-67
2021/05/11 06:00:53;;;;;;;3.45;1.40;;;27.80;27.80;;;;;;5013922;28;20107;-68
2021/05/11 06:03:50;;;;;;;2.10;1.33;;;27.50;27.80;;;;;;4995488;28;20140;-70
2021/05/11 06:06:08;;;;;;;1.88;1.27;;;27.10;27.60;;;;;;4995186;28;20038;-69
2021/05/11 06:08:35;;;;;;;2.70;1.30;;;26.90;27.70;;;;;;5014430;28;20044;-71
2021/05/11 06:13:41;;;;;;;2.05;1.33;;;26.40;28.10;;;;;;4996754;28;20036;-71
2021/05/11 06:18:53;;;;;;;2.67;1.80;;;26.40;28.40;;;;;;4996729;28;20049;-70
2021/05/11 06:21:20;;;;;;;2.17;1.40;;;26.70;28.50;;;;;;4964863;28;20104;-69
2021/05/11 06:23:46;;;;;;;2.97;1.70;;;26.90;28.60;;;;;;4996054;28;20045;-70
2021/05/11 06:26:13;;;;;;;3.28;1.58;;;27.00;28.40;;;;;;4996300;28;20123;-70
2021/05/11 06:28:42;;;;;;;2.25;1.30;;;26.90;28.40;;;;;;5013996;28;20038;-70
2021/05/11 06:31:09;;;;;;;3.50;1.33;;;26.90;28.20;;;;;;4996644;28;20209;-71
2021/05/11 06:33:36;;;;;;;4.30;1.35;;;26.70;27.90;;;;;;5014567;28;20084;-71
2021/05/11 06:36:02;;;;;;;3.60;1.05;;;26.50;27.90;;;;;;4997059;28;20036;-70
2021/05/11 06:38:29;;;;;;;4.25;1.30;;;26.40;28.10;;;;;;4996899;28;20045;-72
2021/05/11 06:40:56;;;;;;;3.40;1.48;;;26.40;28.00;;;;;;4997399;28;20173;-70
2021/05/11 06:43:32;;;;;;;2.03;1.20;;;26.40;28.10;;;;;;4996610;28;20049;-71
2021/05/11 06:53:38;;;;;;;3.97;1.33;;;26.30;28.40;;;;;;5016509;28;20045;-71
2021/05/11 06:56:07;;;;;;;6.80;1.60;;;26.40;28.60;;;;;;4984849;28;20045;-70
2021/05/11 06:58:33;;;;;;;2.08;1.45;;;26.30;28.00;;;;;;5000638;28;20045;-73
2021/05/11 07:00:59;;;;;;;2.58;1.80;;;26.20;28.00;;;;;;5000262;28;20064;-65
2021/05/11 07:03:25;;;;;;;2.83;1.75;;;26.10;28.10;;;;;;4999560;28;20046;-67
2021/05/11 07:05:52;;;;;;;1.63;1.48;;;26.10;28.20;;;;;;4999263;28;20518;-67
2021/05/11 07:10:50;;;;;;;4.68;1.50;;;25.60;34.40;;;;;;5019175;28;20042;-74
2021/05/11 07:13:16;;;;;;;4.18;1.83;;;24.90;29.60;;;;;;5020411;28;20061;-83
2021/05/11 07:15:44;;;;;;;3.40;1.30;;;24.40;29.40;;;;;;5020140;28;20038;-79
2021/05/11 07:18:17;;;;;;;2.88;1.30;;;24.30;29.70;;;;;;4999975;28;20050;-78
2021/05/11 07:20:48;;;;;;;2.15;1.60;;;24.30;29.50;;;;;;4998775;28;20493;-71
2021/05/11 07:23:19;;;;;;;3.35;1.60;;;24.50;29.70;;;;;;4982637;28;20034;-69
2021/05/11 07:30:58;;;;;;;4.65;1.30;;;24.40;29.50;;;;;;4998817;28;20129;-71
2021/05/11 07:33:27;;;;;;;2.20;1.50;;;24.40;29.60;;;;;;4982576;28;20038;-72
2021/05/11 07:35:53;;;;;;;1.35;1.20;;;24.50;29.50;;;;;;4998549;28;20061;-67
2021/05/11 07:38:19;;;;;;;1.48;1.38;;;24.30;29.50;;;;;;4998903;28;20490;-66
2021/05/11 07:40:45;;;;;;;2.90;1.88;;;24.20;29.70;;;;;;4998288;28;20140;-74
2021/05/11 07:43:12;;;;;;;2.08;1.65;;;24.10;30.60;;;;;;4998438;28;20042;-70
2021/05/11 07:48:29;;;;;;;1.73;1.42;;;24.10;31.80;;;;;;4998689;28;20409;-70
2021/05/11 08:04:45;;;;;;;3.65;1.52;;;23.80;31.50;;;;;;5015488;28;20603;-64
2021/05/11 08:28:55;;;;;;;2.35;1.30;;;22.30;35.00;;;;;;5115412;28;20039;-69
2021/05/11 08:31:21;;;;;;;4.35;1.25;;;22.10;35.50;;;;;;5130890;28;20446;-70
2021/05/11 08:33:47;;;;;;;2.05;1.25;;;21.90;36.70;;;;;;5112772;28;20395;-69
2021/05/11 08:36:13;;;;;;;6.15;1.33;;;21.80;35.80;;;;;;5131071;28;20035;-70
2021/05/11 08:38:39;;;;;;;2.28;1.38;;;21.60;34.00;;;;;;5112215;28;20134;-70
2021/05/11 08:41:06;;;;;;;1.95;1.08;;;21.40;34.30;;;;;;5113537;28;20031;-75
2021/05/11 08:43:34;;;;;;;1.42;1.20;;;21.20;33.80;;;;;;5130824;28;20138;-74
2021/05/11 08:46:06;;;;;;;1.40;1.10;;;20.90;33.00;;;;;;5112270;28;20031;-72
2021/05/11 08:48:33;;;;;;;1.13;1.10;;;20.80;33.20;;;;;;5112533;28;20376;-74
2021/05/11 09:00:01;;;;;;;1.65;1.35;;;20.60;33.50;;;;;;5130987;28;20031;-73
2021/05/11 09:24:04;;;;;;;1.00;0.90;;;20.30;32.70;;;;;;5111956;28;20139;-72
2021/05/11 09:26:36;;;;;;;2.03;1.05;;;20.20;32.20;;;;;;5096082;28;20028;-79
2021/05/11 09:29:09;;;;;;;1.38;1.00;;;20.10;32.30;;;;;;5096831;28;20046;-87
2021/05/11 09:50:51;;;;;;;2.40;0.88;;;20.20;32.90;;;;;;5095449;28;20046;-80
2021/05/11 10:27:15;;;;;;;1.80;1.38;;;20.50;33.70;;;;;;5116141;28;20048;-72
2021/05/11 10:48:32;;;;;;;1.10;1.00;;;20.60;34.20;;;;;;5097053;28;20042;-72
2021/05/11 10:51:00;;;;;;;1.88;1.42;;;20.60;34.20;;;;;;5114832;28;20031;-75
2021/05/11 10:54:00;;;;;;;2.78;0.98;;;20.70;34.40;;;;;;5114527;28;20084;-75
2021/05/11 10:56:32;;;;;;;1.63;1.20;;;20.70;34.20;;;;;;5096326;28;20407;-74
2021/05/11 11:01:37;;;;;;;2.70;1.58;;;20.70;34.10;;;;;;5095819;28;20046;-74
2021/05/11 11:04:15;;;;;;;3.30;1.33;;;20.70;34.40;;;;;;5096189;28;20039;-72
2021/05/11 11:06:59;;;;;;;2.45;1.48;;;20.80;34.60;;;;;;5095826;28;20032;-74
2021/05/11 11:09:49;;;;;;;6.38;1.65;;;20.80;34.80;;;;;;5079670;28;20038;-75
2021/05/11 11:12:15;;;;;;;2.85;1.30;;;20.80;35.00;;;;;;5106344;28;20096;-76
2021/05/11 11:14:42;;;;;;;2.97;1.73;;;20.90;35.20;;;;;;5095966;28;20031;-72
2021/05/11 11:17:14;;;;;;;3.55;1.50;;;20.90;35.10;;;;;;5114199;28;20038;-73
2021/05/11 11:19:40;;;;;;;5.32;1.63;;;20.90;35.00;;;;;;5095772;28;20039;-73
2021/05/11 11:24:52;;;;;;;4.22;1.45;;;21.00;35.20;;;;;;5114079;28;20032;-71
2021/05/11 11:27:29;;;;;;;4.72;1.05;;;21.00;35.20;;;;;;5095676;28;20056;-74
2021/05/11 11:30:07;;;;;;;2.03;1.20;;;21.00;35.10;;;;;;5078677;28;20039;-74
2021/05/11 11:32:35;;;;;;;1.35;1.25;;;21.00;35.50;;;;;;5078838;28;20031;-72
2021/05/11 11:35:03;;;;;;;4.30;1.40;;;21.00;36.10;;;;;;5113804;28;20055;-72
2021/05/11 11:37:30;;;;;;;4.82;1.40;;;21.10;35.90;;;;;;5114149;28;20110;-74
2021/05/11 11:40:05;;;;;;;4.30;1.30;;;21.10;35.90;;;;;;5078578;28;20496;-73
2021/05/11 11:42:39;;;;;;;1.60;1.20;;;21.10;36.00;;;;;;5113434;28;20046;-73
2021/05/11 11:45:21;;;;;;;3.22;1.40;;;21.10;36.30;;;;;;5079205;28;20106;-72
2021/05/11 11:48:00;;;;;;;3.72;1.20;;;21.10;36.50;;;;;;5078783;28;20403;-73
2021/05/11 11:50:29;;;;;;;2.20;1.40;;;21.20;36.20;;;;;;5078642;28;20073;-74
2021/05/11 11:57:57;;;;;;;1.30;1.10;;;21.20;36.10;;;;;;5095218;28;20039;-72
2021/05/11 12:00:26;;;;;;;2.13;1.13;;;21.30;36.60;;;;;;5095279;28;20036;-73
2021/05/11 12:02:56;;;;;;;1.77;1.27;;;21.30;36.40;;;;;;5078206;28;20038;-73
2021/05/11 12:05:23;;;;;;;3.00;1.35;;;21.30;36.70;;;;;;5095032;28;20089;-72
2021/05/11 12:08:08;;;;;;;3.15;1.20;;;21.30;36.40;;;;;;5095304;28;20028;-72
2021/05/11 12:10:39;;;;;;;1.35;1.00;;;21.30;36.40;;;;;;5095691;28;20514;-72
2021/05/11 12:13:08;;;;;;;4.28;1.10;;;21.30;37.10;;;;;;5078305;28;20108;-77
2021/05/11 12:15:35;;;;;;;2.78;1.08;;;21.40;36.40;;;;;;5094872;28;20024;-74
2021/05/11 12:18:19;;;;;;;1.13;0.93;;;21.40;36.40;;;;;;5112879;28;20092;-75
2021/05/11 12:20:46;;;;;;;2.70;1.20;;;21.40;36.40;;;;;;5078036;28;20051;-72
2021/05/11 12:23:18;;;;;;;4.22;1.50;;;21.40;37.20;;;;;;5113283;28;20055;-74
2021/05/11 12:26:00;;;;;;;3.17;1.63;;;21.40;37.40;;;;;;5095019;28;20066;-70
2021/05/11 12:28:33;;;;;;;2.22;1.20;;;21.30;37.70;;;;;;5094826;28;20039;-71
2021/05/11 12:31:00;;;;;;;3.28;1.10;;;21.30;37.50;;;;;;5113227;28;20051;-70
2021/05/11 12:33:44;;;;;;;1.27;1.17;;;21.40;38.00;;;;;;5077973;28;20063;-69
2021/05/11 12:36:22;;;;;;;3.45;1.30;;;21.30;38.00;;;;;;5078069;28;20043;-70
2021/05/11 12:39:12;;;;;;;1.52;1.42;;;21.30;38.10;;;;;;5077630;28;20079;-72
2021/05/11 12:41:38;;;;;;;5.70;1.27;;;21.30;38.10;;;;;;5113061;28;20079;-71
2021/05/11 12:44:04;;;;;;;3.35;1.38;;;21.30;38.40;;;;;;5113323;28;20039;-70
2021/05/11 12:46:36;;;;;;;1.55;1.25;;;21.30;38.20;;;;;;5094477;28;20047;-77
2021/05/11 12:49:04;;;;;;;3.03;1.60;;;21.40;38.50;;;;;;5094423;28;20027;-72
2021/05/11 12:51:37;;;;;;;2.92;1.23;;;21.40;38.60;;;;;;5061026;28;20027;-73
2021/05/11 12:54:20;;;;;;;4.10;1.40;;;21.40;38.40;;;;;;5077554;28;20059;-74
2021/05/11 13:05:11;;;;;;;2.83;1.20;;;21.40;38.50;;;;;;5095035;28;20399;-74
2021/05/11 13:27:23;;;;;;;4.07;1.50;;;21.40;39.00;;;;;;5116408;28;20078;-73
2021/05/11 13:34:52;;;;;;;6.00;1.52;;;21.50;39.40;;;;;;5116186;28;20039;-73
2021/05/11 13:37:20;;;;;;;2.88;1.40;;;21.40;39.60;;;;;;5080797;28;20028;-73
2021/05/11 13:39:46;;;;;;;4.88;1.55;;;21.50;39.60;;;;;;5097749;28;20089;-73
2021/05/11 13:42:12;;;;;;;4.70;1.45;;;21.50;39.70;;;;;;5115579;28;20035;-73
2021/05/11 13:44:38;;;;;;;1.25;1.10;;;21.50;39.60;;;;;;5097735;28;20027;-73
2021/05/11 13:47:04;;;;;;;6.13;1.45;;;21.50;39.80;;;;;;5097409;28;20114;-73
2021/05/11 13:49:30;;;;;;;3.53;1.17;;;21.50;39.60;;;;;;5097521;28;20030;-74
2021/05/11 13:51:56;;;;;;;1.30;1.08;;;21.50;39.70;;;;;;5097438;28;20039;-73
2021/05/11 13:54:22;;;;;;;3.58;1.58;;;21.50;39.70;;;;;;5097519;28;20040;-73
2021/05/11 14:05:02;;;;;;;1.77;1.40;;;21.50;40.00;;;;;;5116024;28;20032;-73
2021/05/11 14:07:28;;;;;;;3.35;1.58;;;21.50;40.10;;;;;;5080710;28;20039;-74
2021/05/11 14:09:54;;;;;;;4.70;1.45;;;21.50;40.20;;;;;;5097433;28;20095;-73
2021/05/11 14:12:20;;;;;;;5.13;1.73;;;21.50;40.20;;;;;;5097184;28;20122;-74
2021/05/11 14:14:46;;;;;;;3.55;1.70;;;21.50;40.30;;;;;;5097004;28;20036;-74
2021/05/11 14:17:12;;;;;;;1.88;1.55;;;21.50;40.30;;;;;;5114975;28;20141;-73
2021/05/11 14:19:38;;;;;;;2.92;1.98;;;21.50;40.40;;;;;;5096883;28;20038;-73
2021/05/11 14:22:04;;;;;;;4.70;1.55;;;21.50;40.30;;;;;;5096386;28;20139;-73
2021/05/11 14:24:30;;;;;;;3.33;1.80;;;21.50;40.30;;;;;;5097025;28;20043;-73
2021/05/11 14:26:56;;;;;;;3.17;1.80;;;21.50;40.30;;;;;;5115137;28;20188;-72
2021/05/11 14:29:22;;;;;;;2.78;1.98;;;21.50;40.50;;;;;;5114927;28;20028;-72
2021/05/11 14:31:50;;;;;;;5.03;1.52;;;21.60;40.60;;;;;;5096367;28;20385;-73
2021/05/11 14:34:16;;;;;;;2.38;1.70;;;21.60;40.50;;;;;;5096453;28;20027;-74
2021/05/11 14:36:42;;;;;;;3.75;1.90;;;21.60;40.50;;;;;;5096596;28;20079;-73
2021/05/11 14:39:08;;;;;;;5.53;2.15;;;21.60;40.60;;;;;;5115023;28;20122;-73
2021/05/11 14:41:35;;;;;;;4.45;2.30;;;21.60;40.60;;;;;;5079548;28;20039;-73
2021/05/11 14:44:01;;;;;;;6.63;2.38;;;21.60;40.70;;;;;;5114530;28;20020;-73
2021/05/11 14:46:28;;;;;;;6.47;2.58;;;21.60;40.60;;;;;;5096349;28;20044;-73
2021/05/11 14:48:54;;;;;;;5.72;2.70;;;21.60;40.60;;;;;;5096617;28;20063;-73
2021/05/11 14:51:20;;;;;;;3.90;2.42;;;21.60;40.70;;;;;;5096364;28;20127;-74
2021/05/11 14:53:48;;;;;;;6.00;3.00;;;21.60;40.60;;;;;;5114454;28;20526;-73
2021/05/11 14:56:14;;;;;;;4.22;2.40;;;21.60;40.70;;;;;;5079432;28;20035;-73
2021/05/11 14:58:40;;;;;;;7.53;3.03;;;21.60;40.70;;;;;;5114288;28;20058;-75
2021/05/11 15:01:06;;;;;;;5.90;3.33;;;21.60;40.70;;;;;;5095832;28;20039;-71
2021/05/11 15:03:32;;;;;;;4.68;2.83;;;21.60;40.80;;;;;;5096094;28;20051;-74
2021/05/11 15:05:58;;;;;;;4.15;3.00;;;21.60;40.80;;;;;;5096031;28;20031;-78
2021/05/11 15:08:24;;;;;;;4.10;3.47;;;21.60;40.80;;;;;;5114304;28;20036;-79
2021/05/11 15:10:50;;;;;;;6.80;3.38;;;21.60;40.70;;;;;;5114230;28;20126;-81
2021/05/11 15:13:17;;;;;;;4.07;3.03;;;21.60;40.60;;;;;;5095667;28;20101;-74
2021/05/11 15:15:46;;;;;;;5.72;3.20;;;21.60;40.80;;;;;;5096070;28;20024;-75
2021/05/11 15:18:12;;;;;;;4.78;3.15;;;21.70;40.70;;;;;;5095713;28;20052;-76
2021/05/11 15:20:38;;;;;;;7.22;3.40;;;21.60;40.70;;;;;;5113905;28;20118;-75
2021/05/11 15:23:04;;;;;;;4.97;3.45;;;21.60;40.80;;;;;;5114179;28;20059;-74
2021/05/11 15:25:30;;;;;;;6.85;3.05;;;21.70;41.00;;;;;;5113698;28;20092;-73
2021/05/11 15:27:57;;;;;;;5.75;3.40;;;21.70;40.90;;;;;;5078800;28;20031;-75
2021/05/11 15:30:25;;;;;;;4.35;3.55;;;21.70;41.00;;;;;;5095288;28;20043;-73
2021/05/11 15:32:56;;;;;;;4.28;3.20;;;21.70;41.10;;;;;;5077956;28;20031;-74
2021/05/11 15:35:33;;;;;;;4.50;3.00;;;21.70;41.10;;;;;;5078140;28;20035;-76
2021/05/11 15:38:01;;;;;;;3.25;2.78;;;21.70;41.10;;;;;;5078882;28;20384;-74
2021/05/11 15:40:33;;;;;;;4.38;2.80;;;21.70;40.90;;;;;;5095296;28;20488;-81
2021/05/11 15:42:59;;;;;;;5.47;3.45;;;21.70;41.20;;;;;;5078145;28;20157;-78
2021/05/11 15:45:26;;;;;;;5.32;2.95;;;21.70;41.10;;;;;;5095471;28;20106;-75
2021/05/11 15:47:53;;;;;;;4.60;2.38;;;21.70;41.20;;;;;;5095719;28;20024;-75
2021/05/11 15:50:34;;;;;;;6.90;2.60;;;21.70;41.20;;;;;;5094889;28;20036;-73
2021/05/11 15:53:02;;;;;;;3.60;2.33;;;21.70;41.30;;;;;;5095126;28;20039;-75
2021/05/11 15:55:33;;;;;;;4.43;2.58;;;21.70;41.10;;;;;;5113488;28;20563;-73
2021/05/11 15:57:59;;;;;;;4.90;2.42;;;21.70;41.20;;;;;;5062360;28;20035;-74
2021/05/11 16:00:26;;;;;;;4.20;2.45;;;21.70;41.10;;;;;;5076896;27;20320;-73
2021/05/11 16:02:52;;;;;;;4.45;2.67;;;21.70;41.20;;;;;;5094774;28;20073;-74
2021/05/11 16:05:20;;;;;;;3.50;2.42;;;21.70;41.10;;;;;;5089826;28;20126;-74
2021/05/11 16:07:48;;;;;;;3.80;2.53;;;21.70;41.10;;;;;;5091116;28;20055;-75
2021/05/11 16:10:15;;;;;;;5.80;2.67;;;21.70;41.20;;;;;;5116110;27;20040;-72
2021/05/11 16:12:41;;;;;;;5.13;2.63;;;21.70;41.20;;;;;;5119394;27;20118;-69
2021/05/11 16:15:10;;;;;;;6.07;2.58;;;21.70;41.20;;;;;;5074828;28;20127;-70
2021/05/11 16:17:36;;;;;;;7.47;2.70;;;21.70;41.50;;;;;;5092631;28;20040;-72
2021/05/11 16:20:04;;;;;;;4.38;2.60;;;21.70;41.50;;;;;;5092719;28;20039;-71
2021/05/11 16:22:30;;;;;;;6.95;3.30;;;21.70;41.60;;;;;;5090862;28;20048;-75
2021/05/11 16:24:57;;;;;;;13.75;2.65;;;21.70;41.60;;;;;;5109634;28;20043;-70
2021/05/11 16:27:23;;;;;;;10.52;2.25;;;21.70;42.30;;;;;;5058392;28;20511;-73
2021/05/11 16:29:50;;;;;;;3.78;2.20;;;21.80;44.20;;;;;;5108764;28;20097;-71
2021/05/11 16:32:16;;;;;;;8.15;2.55;;;21.90;43.90;;;;;;5075863;28;20040;-71
2021/05/11 16:34:42;;;;;;;6.95;2.08;;;21.90;44.40;;;;;;5086490;28;20051;-71
2021/05/11 16:37:10;;;;;;;4.07;2.13;;;21.90;44.90;;;;;;5106682;28;20031;-73
2021/05/11 16:39:36;;;;;;;7.63;2.20;;;22.00;45.00;;;;;;5094889;28;20043;-74
2021/05/11 16:42:03;;;;;;;5.18;2.38;;;21.90;45.10;;;;;;5112607;28;20086;-71
2021/05/11 16:44:29;;;;;;;6.53;2.35;;;21.90;45.30;;;;;;5097534;28;20114;-71
2021/05/11 16:46:56;;;;;;;4.25;1.80;;;21.90;45.50;;;;;;5117160;28;20035;-71
2021/05/11 16:49:21;;;;;;;4.68;1.65;;;22.00;45.80;;;;;;5081883;28;20035;-72
2021/05/11 16:51:47;;;;;;;4.05;1.90;;;22.00;45.70;;;;;;5098403;28;20522;-74
2021/05/11 16:54:13;;;;;;;5.43;2.13;;;21.90;45.90;;;;;;5099139;28;20023;-72
2021/05/11 16:56:39;;;;;;;3.17;1.70;;;21.90;45.90;;;;;;5116471;28;20039;-71
2021/05/11 16:59:06;;;;;;;4.95;2.33;;;21.90;46.20;;;;;;5116898;28;20024;-71
2021/05/11 17:01:33;;;;;;;3.88;1.90;;;22.00;46.30;;;;;;5081610;28;20039;-72
2021/05/11 17:03:59;;;;;;;3.95;2.00;;;22.00;46.30;;;;;;5117121;28;20047;-72
2021/05/11 17:06:27;;;;;;;2.88;1.67;;;22.00;46.40;;;;;;5116267;28;20023;-72
2021/05/11 17:08:53;;;;;;;4.95;2.03;;;22.00;46.40;;;;;;5098176;28;20056;-72
2021/05/11 17:11:20;;;;;;;7.50;1.85;;;22.00;46.40;;;;;;5098698;28;20065;-72
2021/05/11 17:13:47;;;;;;;4.28;1.83;;;22.00;46.40;;;;;;5098264;28;20039;-72
2021/05/11 17:16:14;;;;;;;3.05;1.83;;;22.00;46.40;;;;;;5081176;28;20515;-72
2021/05/11 17:18:40;;;;;;;3.55;2.20;;;22.00;46.40;;;;;;5081337;28;20062;-74
2021/05/11 17:21:09;;;;;;;5.13;2.08;;;22.00;46.30;;;;;;5097355;28;20039;-73